IJsselstein, Netherlands
Current Conditions -  °F | °C
As of 10:55 PM on Thursday 27 Nov 2014 (Local Time) from EHAM Reporting Station
Drizzle Drizzle  
Wind Chill: 39°   Ceiling: 500
Heat Index: 45°   Visibility: 1.5mi
Dew Point: 45°   Wind: 10mph
Humidity: 100%   Direction: 110°ESE
Pressure: 29.71"   Gusts: NA
Location:  52.02°N, 5.04°E
Report Text: EHAM 272155Z 11009KT 080V150 2400 -DZ BR SCT004 BKN005 OVC00607/07 Q1006 NOSIG
Loading
Personal Weather Stations






























Interactive Weather Map New forecast layout! Learn more

10-Day Weather Forecast

Advertisements
Track Severe Weather on mobile